Time;durP1;ratioP1;P1;durP2;ratioP2;P2;SDS_P1;SDS_P2;PMS_P1;PMS_P2;Temp;Humidity;BMP_temperature;BMP_pressure;BME280_temperature;BME280_humidity;BME280_pressure;Samples;Min_cycle;Max_cycle;Signal;HPM_P1;HPM_P2
2024/03/22 00:01:47;;;;;;;2.92;2.35;;;11.10;99.90;;;;;;4955398;28;20050;-72
2024/03/22 00:04:13;;;;;;;2.95;2.20;;;11.00;99.90;;;;;;4986003;28;20066;-72
2024/03/22 00:06:41;;;;;;;2.90;2.13;;;11.10;99.90;;;;;;4985376;28;20536;-72
2024/03/22 00:09:07;;;;;;;2.50;2.05;;;11.00;99.90;;;;;;5001429;28;20057;-72
2024/03/22 00:11:33;;;;;;;3.20;2.50;;;11.00;99.90;;;;;;4985350;28;20486;-72
2024/03/22 00:13:58;;;;;;;3.38;2.70;;;11.00;99.90;;;;;;4985815;28;20085;-72
2024/03/22 00:16:24;;;;;;;3.13;2.40;;;11.00;99.90;;;;;;5001319;28;20433;-72
2024/03/22 00:18:50;;;;;;;2.38;2.03;;;11.00;99.90;;;;;;4953791;28;20136;-72
2024/03/22 00:21:16;;;;;;;2.47;1.98;;;11.00;99.90;;;;;;4984719;28;20060;-72
2024/03/22 00:23:43;;;;;;;2.28;1.98;;;10.90;99.90;;;;;;4969723;28;20061;-72
2024/03/22 00:26:09;;;;;;;2.35;1.83;;;10.90;99.90;;;;;;5000829;28;20049;-72
2024/03/22 00:28:35;;;;;;;2.40;1.90;;;10.90;99.90;;;;;;4969332;28;20068;-72
2024/03/22 00:31:01;;;;;;;2.60;1.92;;;10.80;99.90;;;;;;5001967;28;20054;-72
2024/03/22 00:33:26;;;;;;;2.95;2.05;;;10.80;99.90;;;;;;4985351;28;20192;-72
2024/03/22 00:35:52;;;;;;;3.38;2.38;;;10.80;99.90;;;;;;5001256;28;20053;-72
2024/03/22 00:38:18;;;;;;;2.28;1.92;;;10.80;99.90;;;;;;4984704;28;20144;-72
2024/03/22 00:40:44;;;;;;;3.42;2.10;;;10.80;99.90;;;;;;4969073;28;20084;-72
2024/03/22 00:43:10;;;;;;;2.30;2.03;;;10.80;99.90;;;;;;4969796;28;20061;-72
2024/03/22 00:45:36;;;;;;;2.40;2.08;;;10.70;99.90;;;;;;5000837;28;20054;-72
2024/03/22 00:48:02;;;;;;;2.70;2.08;;;10.80;99.90;;;;;;5001191;28;20053;-72
2024/03/22 00:50:28;;;;;;;2.90;2.20;;;10.70;99.90;;;;;;4985076;28;20053;-72
2024/03/22 00:52:57;;;;;;;2.50;2.10;;;10.70;99.90;;;;;;4984159;28;20062;-72
2024/03/22 00:55:23;;;;;;;2.95;2.22;;;10.80;99.90;;;;;;5001173;28;20123;-72
2024/03/22 00:57:49;;;;;;;3.65;2.50;;;10.80;99.90;;;;;;4969169;28;20060;-72
2024/03/22 01:00:16;;;;;;;2.83;2.42;;;10.80;99.90;;;;;;4952770;28;20061;-72
2024/03/22 01:02:42;;;;;;;3.60;2.53;;;10.70;99.90;;;;;;4969348;28;20053;-72
2024/03/22 01:05:08;;;;;;;2.33;2.05;;;10.70;99.90;;;;;;4969268;28;20061;-72
2024/03/22 01:07:35;;;;;;;2.88;2.15;;;10.70;99.90;;;;;;4982098;28;20511;-72
2024/03/22 01:10:01;;;;;;;2.67;2.10;;;10.70;99.90;;;;;;4967184;28;20436;-72
2024/03/22 01:12:26;;;;;;;3.13;2.67;;;10.70;99.90;;;;;;4985350;28;20089;-72
2024/03/22 01:14:52;;;;;;;2.90;2.20;;;10.70;99.90;;;;;;4984234;28;20493;-72
2024/03/22 01:17:18;;;;;;;3.22;2.58;;;10.70;99.90;;;;;;4965968;28;20054;-72
2024/03/22 01:19:44;;;;;;;2.70;2.20;;;10.70;99.90;;;;;;4949090;28;20054;-72
2024/03/22 01:22:10;;;;;;;3.20;2.38;;;10.70;99.90;;;;;;4964813;28;20054;-72
2024/03/22 01:24:35;;;;;;;2.40;2.10;;;10.70;99.90;;;;;;4980259;28;20054;-72
2024/03/22 01:27:01;;;;;;;2.40;1.70;;;10.70;99.90;;;;;;4965136;28;20097;-73
2024/03/22 01:29:30;;;;;;;2.38;1.85;;;10.70;99.90;;;;;;4980731;28;20054;-72
2024/03/22 01:31:57;;;;;;;3.58;2.67;;;10.70;99.90;;;;;;4981368;28;20442;-72
2024/03/22 01:34:23;;;;;;;2.45;1.92;;;10.70;99.90;;;;;;4980944;28;20120;-71
2024/03/22 01:36:48;;;;;;;3.03;1.90;;;10.70;99.90;;;;;;4980646;28;20062;-72
2024/03/22 01:39:15;;;;;;;2.50;2.03;;;10.70;99.90;;;;;;4980627;28;20139;-72
2024/03/22 01:41:41;;;;;;;2.17;1.92;;;10.70;99.90;;;;;;4981742;28;20438;-72
2024/03/22 01:44:07;;;;;;;2.45;1.80;;;10.70;99.90;;;;;;4980809;28;20140;-72
2024/03/22 01:46:33;;;;;;;2.70;1.95;;;10.70;99.90;;;;;;4980794;28;20046;-72
2024/03/22 01:48:58;;;;;;;3.17;2.00;;;10.70;99.90;;;;;;4980660;28;20084;-72
2024/03/22 01:51:24;;;;;;;2.20;1.60;;;10.70;99.90;;;;;;4964065;28;20054;-73
2024/03/22 01:53:50;;;;;;;2.42;1.63;;;10.70;99.90;;;;;;4980681;28;20065;-72
2024/03/22 01:56:16;;;;;;;1.77;1.40;;;10.70;99.90;;;;;;4948533;28;20116;-72
2024/03/22 01:58:42;;;;;;;3.10;1.80;;;10.70;99.90;;;;;;4948846;28;20089;-72
2024/03/22 02:01:08;;;;;;;2.45;1.80;;;10.70;99.90;;;;;;4964512;28;20101;-72
2024/03/22 02:03:34;;;;;;;1.92;1.60;;;10.70;99.90;;;;;;4949732;28;20098;-71
2024/03/22 02:05:59;;;;;;;2.80;1.70;;;10.60;99.90;;;;;;4948493;28;20569;-72
2024/03/22 02:08:25;;;;;;;2.35;1.50;;;10.70;99.90;;;;;;4947972;28;20058;-72
2024/03/22 02:10:52;;;;;;;3.22;2.00;;;10.60;99.90;;;;;;4980190;28;20055;-72
2024/03/22 02:13:18;;;;;;;3.10;2.00;;;10.60;99.90;;;;;;4980581;28;20607;-72
2024/03/22 02:15:44;;;;;;;2.28;1.85;;;10.60;99.90;;;;;;4980269;28;20062;-72
2024/03/22 02:18:10;;;;;;;2.33;1.90;;;10.60;97.60;;;;;;4984773;28;20054;-72
2024/03/22 02:20:36;;;;;;;3.22;1.90;;;10.50;94.70;;;;;;4969608;28;20049;-72
2024/03/22 02:23:01;;;;;;;2.78;1.80;;;10.50;91.60;;;;;;4998106;28;20056;-73
2024/03/22 02:25:27;;;;;;;2.67;1.90;;;10.50;88.70;;;;;;4984863;28;20065;-72
2024/03/22 02:27:53;;;;;;;2.42;1.88;;;10.50;82.80;;;;;;4952771;28;20069;-72
2024/03/22 02:30:19;;;;;;;3.30;2.40;;;10.50;81.50;;;;;;4986616;28;20142;-72
2024/03/22 02:32:45;;;;;;;2.53;1.90;;;10.50;80.50;;;;;;4995798;28;20059;-72
2024/03/22 02:35:11;;;;;;;2.67;2.03;;;10.50;83.30;;;;;;4990589;28;20057;-72
2024/03/22 02:37:36;;;;;;;2.53;2.08;;;10.50;85.40;;;;;;4990193;28;20198;-72
2024/03/22 02:40:03;;;;;;;2.58;2.17;;;10.50;89.80;;;;;;5007321;28;20054;-72
2024/03/22 02:42:28;;;;;;;2.60;1.98;;;10.50;91.20;;;;;;5001864;28;20050;-72
2024/03/22 02:44:54;;;;;;;2.30;1.88;;;10.50;93.10;;;;;;4988810;28;20137;-72
2024/03/22 02:47:20;;;;;;;2.10;1.73;;;10.50;94.30;;;;;;4987659;28;20047;-72
2024/03/22 02:49:46;;;;;;;2.60;1.80;;;10.50;96.70;;;;;;4986809;28;20074;-72
2024/03/22 02:52:13;;;;;;;2.22;1.80;;;10.40;97.70;;;;;;4987501;28;20051;-72
2024/03/22 02:54:38;;;;;;;2.70;1.75;;;10.40;99.90;;;;;;4987809;28;20054;-72
2024/03/22 02:57:05;;;;;;;2.35;1.77;;;10.40;98.90;;;;;;4988006;28;20490;-72
2024/03/22 02:59:30;;;;;;;1.73;1.33;;;10.40;98.80;;;;;;4988069;28;20061;-72
2024/03/22 03:01:56;;;;;;;1.95;1.55;;;10.40;97.70;;;;;;4955814;28;20050;-72
2024/03/22 03:04:22;;;;;;;2.33;1.83;;;10.40;96.30;;;;;;4971380;28;20112;-72
2024/03/22 03:06:48;;;;;;;1.70;1.35;;;10.40;95.60;;;;;;4986410;28;20060;-72
2024/03/22 03:09:14;;;;;;;1.90;1.23;;;10.40;93.70;;;;;;4987722;28;20058;-72
2024/03/22 03:11:40;;;;;;;1.50;1.30;;;10.40;97.90;;;;;;4971731;28;20133;-72
2024/03/22 03:14:06;;;;;;;1.77;1.27;;;10.40;91.60;;;;;;4971282;28;20134;-72
2024/03/22 03:16:32;;;;;;;1.75;1.30;;;10.40;92.90;;;;;;4971489;28;20096;-72
2024/03/22 03:18:57;;;;;;;1.40;1.10;;;10.40;90.40;;;;;;4971539;28;20482;-72
2024/03/22 03:21:23;;;;;;;2.38;1.20;;;10.40;92.30;;;;;;4968998;28;20058;-71
2024/03/22 03:23:49;;;;;;;1.70;1.15;;;10.40;90.30;;;;;;4971259;28;20061;-72
2024/03/22 03:26:15;;;;;;;2.03;1.30;;;10.50;89.30;;;;;;4954927;28;20132;-72
2024/03/22 03:28:41;;;;;;;1.70;1.00;;;10.50;89.40;;;;;;4955138;28;20062;-72
2024/03/22 03:31:06;;;;;;;1.38;1.00;;;10.50;85.30;;;;;;4986679;28;20063;-72
2024/03/22 03:33:32;;;;;;;2.10;1.00;;;10.50;81.70;;;;;;4986656;28;20050;-72
2024/03/22 03:35:58;;;;;;;2.05;1.30;;;10.50;77.40;;;;;;4985808;28;20065;-72
2024/03/22 03:38:24;;;;;;;1.05;0.88;;;10.50;73.40;;;;;;4986977;28;20141;-72
2024/03/22 03:40:50;;;;;;;1.42;1.00;;;10.50;62.10;;;;;;4986891;28;20042;-72
2024/03/22 03:43:16;;;;;;;1.42;1.10;;;10.50;59.70;;;;;;4971077;28;20065;-72
2024/03/22 03:45:42;;;;;;;1.15;0.90;;;10.50;56.70;;;;;;4986787;28;20047;-72
2024/03/22 03:48:08;;;;;;;1.67;1.10;;;10.60;67.10;;;;;;4986178;28;20113;-72
2024/03/22 03:50:33;;;;;;;1.20;0.90;;;10.50;49.50;;;;;;4997782;28;20050;-72
2024/03/22 03:52:59;;;;;;;1.80;1.20;;;10.50;48.40;;;;;;4998280;28;20058;-71
2024/03/22 03:55:26;;;;;;;1.50;1.10;;;10.60;44.50;;;;;;4954566;28;20058;-72
2024/03/22 03:57:52;;;;;;;1.33;1.15;;;10.60;37.20;;;;;;4954947;28;20065;-72
2024/03/22 04:00:19;;;;;;;1.58;1.10;;;10.60;31.70;;;;;;4989100;28;20058;-72
2024/03/22 04:02:45;;;;;;;1.50;1.20;;;10.60;30.00;;;;;;4969763;28;20062;-72
2024/03/22 04:05:11;;;;;;;1.17;1.00;;;10.60;28.80;;;;;;4969457;28;20117;-72
2024/03/22 04:07:39;;;;;;;1.73;1.15;;;10.70;29.90;;;;;;4954399;28;20089;-72
2024/03/22 04:10:06;;;;;;;1.55;1.00;;;10.70;31.40;;;;;;4954234;28;20073;-72
2024/03/22 04:12:31;;;;;;;1.50;1.10;;;10.70;32.30;;;;;;4954941;28;20417;-72
2024/03/22 04:14:57;;;;;;;1.27;1.10;;;10.80;34.80;;;;;;4970475;28;20066;-72
2024/03/22 04:17:23;;;;;;;1.40;1.13;;;10.80;37.60;;;;;;4970559;28;20089;-72
2024/03/22 04:19:52;;;;;;;1.45;1.02;;;10.80;39.30;;;;;;4952928;28;20089;-72
2024/03/22 04:22:18;;;;;;;1.75;1.20;;;10.80;37.70;;;;;;4985719;28;20055;-72
2024/03/22 04:24:44;;;;;;;1.48;1.15;;;10.70;37.00;;;;;;4954342;28;20490;-72
2024/03/22 04:27:10;;;;;;;1.80;1.15;;;10.70;35.40;;;;;;4970395;28;20060;-72
2024/03/22 04:29:36;;;;;;;1.77;1.30;;;10.70;34.60;;;;;;4969996;28;20160;-72
2024/03/22 04:32:01;;;;;;;1.60;1.15;;;10.60;35.30;;;;;;4970008;28;20053;-72
2024/03/22 04:34:27;;;;;;;1.80;1.27;;;10.60;37.30;;;;;;4970075;28;20057;-72
2024/03/22 04:36:53;;;;;;;1.70;1.13;;;10.60;39.20;;;;;;4984603;28;20777;-72
2024/03/22 04:39:20;;;;;;;1.38;0.90;;;10.60;34.80;;;;;;4970173;28;20181;-72
2024/03/22 04:41:45;;;;;;;1.15;0.98;;;10.60;32.60;;;;;;4953460;28;20050;-72
2024/03/22 04:44:11;;;;;;;1.08;0.90;;;10.60;31.50;;;;;;4985620;28;20050;-72
2024/03/22 04:46:37;;;;;;;1.42;1.02;;;10.60;30.10;;;;;;4969793;28;20058;-72
2024/03/22 04:49:03;;;;;;;1.40;1.05;;;10.60;28.50;;;;;;4984795;28;20074;-72
2024/03/22 04:51:29;;;;;;;1.40;1.10;;;10.60;28.00;;;;;;4983796;28;20062;-72
2024/03/22 04:53:54;;;;;;;1.75;1.42;;;10.60;25.00;;;;;;4985556;28;20101;-72
2024/03/22 04:56:20;;;;;;;1.67;0.90;;;10.60;23.50;;;;;;4969944;28;20061;-72
2024/03/22 04:58:46;;;;;;;2.15;1.20;;;10.60;24.10;;;;;;4985993;28;20093;-72
2024/03/22 05:01:12;;;;;;;1.10;0.88;;;10.70;25.80;;;;;;4985271;28;20053;-72
2024/03/22 05:03:38;;;;;;;0.90;0.80;;;10.70;26.90;;;;;;4985811;28;20050;-72
2024/03/22 05:06:06;;;;;;;0.90;0.80;;;10.70;27.10;;;;;;4977169;28;20172;-72
2024/03/22 05:08:32;;;;;;;1.48;1.30;;;10.60;30.00;;;;;;4993098;28;20502;-72
2024/03/22 05:10:58;;;;;;;1.90;1.08;;;10.70;34.80;;;;;;4999276;28;20065;-72
2024/03/22 05:13:24;;;;;;;1.10;0.85;;;10.70;39.80;;;;;;4975867;28;20098;-72
2024/03/22 05:15:49;;;;;;;1.80;1.20;;;10.60;45.10;;;;;;4993779;28;20049;-72
2024/03/22 05:18:15;;;;;;;1.70;1.20;;;10.60;50.30;;;;;;4978495;28;20050;-72
2024/03/22 05:20:41;;;;;;;2.45;1.80;;;10.60;55.90;;;;;;4977851;28;20058;-72
2024/03/22 05:23:07;;;;;;;2.03;1.52;;;10.60;61.90;;;;;;4998932;28;20138;-72
2024/03/22 05:25:33;;;;;;;1.80;1.10;;;10.60;68.10;;;;;;4985065;28;20058;-72
2024/03/22 05:27:59;;;;;;;2.30;1.50;;;10.60;67.90;;;;;;4984901;28;20050;-72
2024/03/22 05:30:25;;;;;;;2.08;1.42;;;10.60;71.30;;;;;;4968499;28;20266;-72
2024/03/22 05:32:50;;;;;;;2.15;1.50;;;10.50;72.40;;;;;;4984716;28;20058;-72
2024/03/22 05:35:17;;;;;;;1.80;1.50;;;10.50;74.80;;;;;;4968143;28;20065;-72
2024/03/22 05:37:43;;;;;;;1.67;1.20;;;10.60;75.00;;;;;;4968708;28;20073;-72
2024/03/22 05:40:09;;;;;;;2.33;1.42;;;10.60;74.10;;;;;;4984912;28;20058;-72
2024/03/22 05:42:35;;;;;;;1.73;1.38;;;10.60;75.60;;;;;;4984925;28;20108;-72
2024/03/22 05:45:01;;;;;;;1.98;1.48;;;10.60;75.10;;;;;;4952284;28;20438;-72
2024/03/22 05:47:27;;;;;;;1.60;1.20;;;10.60;75.80;;;;;;4984784;28;20093;-72
2024/03/22 05:49:53;;;;;;;1.35;1.00;;;10.60;74.70;;;;;;4983901;28;20147;-71
2024/03/22 05:52:18;;;;;;;1.52;1.10;;;10.60;73.40;;;;;;4968067;28;20057;-72
2024/03/22 05:54:44;;;;;;;1.92;1.30;;;10.60;70.10;;;;;;4968119;28;20058;-73
2024/03/22 05:57:11;;;;;;;2.65;1.52;;;10.70;70.40;;;;;;4969104;28;20046;-72
2024/03/22 05:59:37;;;;;;;1.92;1.33;;;10.70;65.80;;;;;;4968350;28;21024;-72
2024/03/22 06:02:02;;;;;;;1.33;1.20;;;10.70;65.50;;;;;;4968713;28;20090;-72
2024/03/22 06:04:28;;;;;;;1.55;1.10;;;10.70;64.10;;;;;;4964437;28;20476;-72
2024/03/22 06:06:54;;;;;;;1.30;1.10;;;10.70;63.70;;;;;;4964076;28;20184;-72
2024/03/22 06:09:36;;;;;;;1.35;1.00;;;10.80;62.00;;;;;;4980970;28;20127;-72
2024/03/22 06:12:05;;;;;;;1.63;1.13;;;10.80;67.10;;;;;;4981090;28;20450;-72
2024/03/22 06:14:32;;;;;;;1.10;0.75;;;10.80;60.50;;;;;;4981027;28;20070;-72
2024/03/22 06:16:57;;;;;;;1.10;0.80;;;10.80;59.90;;;;;;4981175;28;20413;-72
2024/03/22 06:19:24;;;;;;;1.33;1.08;;;10.80;61.30;;;;;;4964754;28;20050;-72
2024/03/22 06:21:50;;;;;;;1.42;1.05;;;10.80;60.40;;;;;;4947344;28;20882;-73
2024/03/22 06:24:15;;;;;;;1.30;1.10;;;10.80;64.20;;;;;;4964525;28;20054;-74
2024/03/22 06:26:41;;;;;;;1.35;1.00;;;10.80;63.30;;;;;;4964406;28;20062;-73
2024/03/22 06:29:07;;;;;;;1.30;0.88;;;10.90;64.60;;;;;;4964946;28;20058;-73
2024/03/22 06:31:33;;;;;;;1.50;0.80;;;10.80;64.00;;;;;;4964527;28;20089;-73
2024/03/22 06:34:02;;;;;;;0.93;0.80;;;10.90;64.40;;;;;;4980393;28;20446;-72
2024/03/22 06:36:29;;;;;;;1.67;1.20;;;10.90;77.90;;;;;;4979191;28;20066;-73
2024/03/22 06:38:55;;;;;;;1.25;1.15;;;10.90;66.90;;;;;;4981225;28;20454;-73
2024/03/22 06:41:21;;;;;;;1.40;1.10;;;10.80;67.70;;;;;;4964464;28;20100;-73
2024/03/22 06:43:47;;;;;;;1.55;1.25;;;10.80;69.10;;;;;;4964497;28;20430;-73
2024/03/22 06:46:13;;;;;;;1.45;1.02;;;10.80;73.10;;;;;;4964674;28;20054;-73
2024/03/22 06:48:39;;;;;;;1.45;1.10;;;10.90;76.50;;;;;;4964546;28;20092;-73
2024/03/22 06:51:05;;;;;;;1.00;0.75;;;10.90;82.50;;;;;;4947000;28;20094;-73
2024/03/22 06:53:30;;;;;;;1.33;0.70;;;11.00;88.40;;;;;;4980558;28;20055;-73
2024/03/22 06:55:56;;;;;;;1.00;0.80;;;11.00;88.50;;;;;;4963589;28;20504;-73
2024/03/22 06:58:23;;;;;;;0.70;0.70;;;11.00;90.30;;;;;;4967845;28;20058;-73
2024/03/22 07:00:49;;;;;;;1.27;0.90;;;11.00;93.10;;;;;;4962087;28;20053;-73
2024/03/22 07:03:15;;;;;;;1.23;0.85;;;11.00;95.90;;;;;;4992807;28;20074;-73
2024/03/22 07:05:41;;;;;;;1.48;1.08;;;11.00;97.20;;;;;;4989344;28;20096;-73
2024/03/22 07:08:06;;;;;;;1.42;1.00;;;11.00;99.10;;;;;;4985188;28;20061;-73
2024/03/22 07:10:33;;;;;;;1.70;0.90;;;11.00;99.90;;;;;;4972839;28;20061;-72
2024/03/22 07:12:59;;;;;;;1.27;0.98;;;11.10;99.90;;;;;;4996300;28;20042;-73
2024/03/22 07:15:24;;;;;;;0.95;0.70;;;11.10;99.90;;;;;;4989325;28;20511;-73
2024/03/22 07:17:51;;;;;;;1.00;0.80;;;11.10;99.90;;;;;;4981965;28;20050;-73
2024/03/22 07:20:18;;;;;;;1.23;0.80;;;11.10;99.90;;;;;;4974012;28;20058;-74
2024/03/22 07:22:43;;;;;;;0.88;0.70;;;11.10;99.90;;;;;;4989469;28;20407;-74
2024/03/22 07:25:10;;;;;;;0.98;0.68;;;11.10;99.90;;;;;;4991255;28;20053;-74
2024/03/22 07:27:36;;;;;;;1.63;0.90;;;11.10;99.90;;;;;;4971699;28;20058;-74
2024/03/22 07:30:03;;;;;;;0.80;0.70;;;11.10;99.90;;;;;;4981840;28;20046;-73
2024/03/22 07:32:29;;;;;;;1.00;0.80;;;11.10;99.90;;;;;;4981186;28;20061;-91
2024/03/22 07:34:55;;;;;;;1.77;0.93;;;11.20;99.90;;;;;;4960016;28;20042;-80
2024/03/22 07:37:21;;;;;;;1.10;1.00;;;11.20;99.90;;;;;;4985246;28;20061;-82
2024/03/22 07:39:47;;;;;;;1.15;0.80;;;11.20;99.90;;;;;;4969224;28;20058;-82
2024/03/22 07:42:13;;;;;;;1.13;0.90;;;11.20;99.90;;;;;;4950815;28;20061;-81
2024/03/22 07:44:39;;;;;;;2.45;1.00;;;11.20;99.90;;;;;;4960546;28;20468;-81
2024/03/22 07:47:05;;;;;;;1.48;0.90;;;11.30;99.90;;;;;;4954263;28;20554;-82
2024/03/22 07:49:33;;;;;;;0.77;0.77;;;11.20;99.90;;;;;;4966032;28;20408;-81
2024/03/22 07:52:01;;;;;;;1.15;0.80;;;11.20;99.90;;;;;;4984850;28;20386;-83
2024/03/22 07:54:27;;;;;;;0.98;0.70;;;11.30;99.90;;;;;;4961131;28;20123;-80
2024/03/22 07:56:54;;;;;;;0.88;0.70;;;11.30;99.90;;;;;;4949909;28;20046;-81
2024/03/22 07:59:19;;;;;;;0.93;0.80;;;11.30;99.90;;;;;;4956526;28;20064;-81
2024/03/22 08:01:46;;;;;;;1.02;0.77;;;11.30;99.90;;;;;;4968643;28;20116;-82
2024/03/22 08:04:12;;;;;;;1.80;0.80;;;11.30;99.90;;;;;;4981513;28;20057;-82
2024/03/22 08:06:38;;;;;;;1.50;0.90;;;11.40;99.90;;;;;;4962495;28;20073;-83
2024/03/22 08:09:04;;;;;;;0.68;0.60;;;11.40;99.90;;;;;;4958408;28;20104;-84
2024/03/22 08:11:30;;;;;;;1.20;0.70;;;11.50;99.90;;;;;;4952764;28;20068;-81
2024/03/22 08:14:02;;;;;;;0.70;0.55;;;11.50;99.90;;;;;;4967789;28;20050;-82
2024/03/22 08:16:29;;;;;;;0.50;0.50;;;11.50;99.90;;;;;;4967047;28;20057;-81
2024/03/22 08:18:55;;;;;;;0.73;0.60;;;11.60;99.90;;;;;;4968355;28;20058;-81
2024/03/22 08:21:22;;;;;;;0.95;0.70;;;11.60;99.90;;;;;;4966783;28;20058;-82
2024/03/22 08:23:49;;;;;;;0.70;0.50;;;11.60;99.90;;;;;;4981899;28;20579;-81
2024/03/22 08:26:15;;;;;;;0.70;0.50;;;11.60;99.90;;;;;;4963002;28;20057;-80
2024/03/22 08:28:42;;;;;;;0.63;0.50;;;11.60;99.90;;;;;;4978848;28;20062;-80
2024/03/22 08:31:09;;;;;;;1.08;0.70;;;11.60;99.90;;;;;;4963241;28;20421;-80
2024/03/22 08:33:35;;;;;;;0.80;0.60;;;11.70;99.90;;;;;;4965910;28;20060;-81
2024/03/22 08:36:01;;;;;;;0.68;0.60;;;11.80;99.90;;;;;;4963869;28;20395;-80
2024/03/22 08:38:28;;;;;;;0.60;0.60;;;11.80;99.90;;;;;;4967417;28;20119;-80
2024/03/22 08:40:54;;;;;;;0.60;0.60;;;11.80;99.90;;;;;;4996541;28;20108;-80
2024/03/22 08:43:22;;;;;;;1.50;0.90;;;11.90;99.90;;;;;;4963071;28;20576;-80
2024/03/22 08:45:49;;;;;;;0.98;0.80;;;11.90;99.90;;;;;;4968192;28;20045;-80
2024/03/22 08:48:14;;;;;;;1.23;0.82;;;11.80;99.90;;;;;;4966641;28;20068;-80
2024/03/22 08:50:44;;;;;;;1.25;0.80;;;11.90;99.90;;;;;;4978978;28;20066;-80
2024/03/22 08:53:10;;;;;;;0.82;0.60;;;11.80;99.90;;;;;;4959224;28;20054;-79
2024/03/22 08:55:36;;;;;;;0.63;0.50;;;11.80;99.90;;;;;;4979582;28;20050;-77
2024/03/22 08:58:03;;;;;;;1.00;0.70;;;11.70;99.90;;;;;;4982709;28;20449;-77
2024/03/22 09:00:30;;;;;;;0.65;0.60;;;11.80;99.90;;;;;;4965800;28;20081;-77
2024/03/22 09:02:56;;;;;;;0.75;0.60;;;11.90;99.90;;;;;;4975925;28;20108;-76
2024/03/22 09:05:22;;;;;;;0.40;0.40;;;11.90;99.90;;;;;;4941584;28;20054;-76
2024/03/22 09:07:48;;;;;;;0.55;0.50;;;12.00;99.90;;;;;;4941916;28;20136;-76
2024/03/22 09:10:14;;;;;;;0.63;0.43;;;12.00;99.90;;;;;;4942554;28;20061;-77
2024/03/22 09:12:41;;;;;;;0.65;0.60;;;12.10;99.90;;;;;;4939771;28;20137;-77
2024/03/22 09:15:08;;;;;;;0.70;0.60;;;12.10;99.90;;;;;;4948245;28;20057;-76
2024/03/22 09:17:33;;;;;;;0.70;0.52;;;12.30;99.90;;;;;;4964715;28;20050;-76
2024/03/22 09:19:59;;;;;;;0.40;0.40;;;12.40;99.90;;;;;;4948039;28;20050;-76
2024/03/22 09:22:25;;;;;;;0.60;0.50;;;12.50;99.90;;;;;;4967837;28;20054;-76
2024/03/22 09:24:51;;;;;;;0.52;0.40;;;12.60;99.90;;;;;;4932484;28;20561;-76
2024/03/22 09:27:17;;;;;;;0.75;0.60;;;12.60;99.90;;;;;;4933199;28;20061;-78
2024/03/22 09:29:43;;;;;;;0.45;0.43;;;12.60;99.90;;;;;;4934409;28;20064;-76
2024/03/22 09:32:09;;;;;;;0.57;0.38;;;12.60;99.90;;;;;;4951537;28;20089;-76
2024/03/22 09:34:36;;;;;;;0.75;0.50;;;12.70;99.50;;;;;;4934300;28;20171;-76
2024/03/22 09:37:02;;;;;;;0.60;0.50;;;12.70;97.20;;;;;;4966530;28;20054;-76
2024/03/22 09:39:28;;;;;;;0.98;0.65;;;12.80;96.20;;;;;;4969407;28;20571;-76
2024/03/22 09:41:54;;;;;;;0.55;0.50;;;12.70;91.10;;;;;;4964305;28;20042;-76
2024/03/22 09:44:20;;;;;;;0.50;0.50;;;12.60;94.20;;;;;;4965627;28;20061;-80
2024/03/22 09:46:47;;;;;;;0.60;0.60;;;12.60;92.20;;;;;;4952318;28;20049;-79
2024/03/22 09:49:13;;;;;;;0.65;0.60;;;12.70;91.40;;;;;;4948495;28;20489;-80
2024/03/22 09:51:43;;;;;;;0.60;0.52;;;12.70;90.90;;;;;;4974034;28;20061;-76
2024/03/22 09:54:12;;;;;;;0.60;0.50;;;12.80;91.20;;;;;;4952987;28;20054;-75
2024/03/22 09:56:40;;;;;;;0.73;0.60;;;12.80;90.00;;;;;;4970012;28;20082;-76
2024/03/22 09:59:06;;;;;;;0.70;0.50;;;12.80;91.20;;;;;;4953774;28;20050;-76
2024/03/22 10:01:34;;;;;;;0.40;0.40;;;12.90;87.90;;;;;;4966293;28;20069;-76
2024/03/22 10:04:00;;;;;;;0.50;0.50;;;12.90;90.70;;;;;;4970807;28;20186;-76
2024/03/22 10:06:26;;;;;;;0.40;0.40;;;13.00;86.00;;;;;;4957234;28;20058;-76
2024/03/22 10:08:52;;;;;;;0.80;0.65;;;13.00;81.80;;;;;;4977398;28;20454;-76
2024/03/22 10:11:18;;;;;;;1.25;0.68;;;12.90;82.60;;;;;;4970163;28;20049;-76
2024/03/22 10:13:44;;;;;;;0.50;0.35;;;12.90;82.50;;;;;;4964822;28;20050;-76
2024/03/22 10:16:10;;;;;;;0.40;0.40;;;12.80;83.20;;;;;;4953737;28;20049;-76
2024/03/22 10:18:36;;;;;;;1.75;0.52;;;12.80;81.80;;;;;;4968806;28;20120;-76
2024/03/22 10:21:03;;;;;;;0.30;0.30;;;12.80;84.10;;;;;;4963830;28;20077;-76
2024/03/22 10:23:29;;;;;;;1.10;0.50;;;12.90;86.70;;;;;;4971229;28;20070;-76
2024/03/22 10:25:59;;;;;;;0.30;0.30;;;12.90;93.60;;;;;;4966386;28;20061;-77
2024/03/22 10:28:25;;;;;;;0.70;0.50;;;12.90;93.20;;;;;;4983232;28;20061;-78
2024/03/22 10:30:54;;;;;;;0.50;0.40;;;13.00;83.00;;;;;;4985252;28;20049;-77
2024/03/22 10:33:24;;;;;;;0.50;0.47;;;13.10;84.20;;;;;;4963173;28;20058;-77
2024/03/22 10:35:56;;;;;;;0.80;0.60;;;13.10;83.10;;;;;;4966978;28;20124;-77
2024/03/22 10:38:22;;;;;;;0.65;0.60;;;13.10;85.10;;;;;;4937034;28;20136;-78
2024/03/22 10:40:48;;;;;;;0.40;0.40;;;13.00;82.70;;;;;;4981345;28;20136;-77
2024/03/22 10:43:15;;;;;;;0.40;0.40;;;13.00;92.80;;;;;;4965564;28;20054;-78
2024/03/22 10:45:43;;;;;;;1.05;0.82;;;13.00;86.90;;;;;;4969807;28;20057;-76
2024/03/22 10:48:09;;;;;;;0.85;0.47;;;13.10;86.90;;;;;;4956805;28;20057;-77
2024/03/22 10:50:38;;;;;;;0.50;0.50;;;13.10;87.10;;;;;;4971412;28;20053;-77
2024/03/22 10:53:06;;;;;;;0.63;0.63;;;13.00;86.20;;;;;;4973266;28;20165;-75
2024/03/22 10:55:37;;;;;;;0.73;0.52;;;13.00;90.40;;;;;;4974009;28;20065;-78
2024/03/22 10:58:04;;;;;;;0.70;0.57;;;13.20;91.00;;;;;;4958326;28;20498;-77
2024/03/22 11:00:34;;;;;;;0.65;0.47;;;13.20;87.90;;;;;;4973496;28;20092;-77
2024/03/22 11:03:02;;;;;;;1.65;0.77;;;13.20;89.70;;;;;;4973725;28;20485;-77
2024/03/22 11:05:28;;;;;;;0.40;0.40;;;13.10;88.20;;;;;;4998912;28;20073;-77
2024/03/22 11:08:00;;;;;;;0.60;0.60;;;13.10;89.50;;;;;;4973318;28;20041;-77
2024/03/22 11:10:30;;;;;;;2.13;0.60;;;13.00;96.20;;;;;;4988272;28;20600;-77
2024/03/22 11:13:00;;;;;;;1.05;0.70;;;13.00;91.80;;;;;;4969736;28;20469;-77
2024/03/22 11:15:27;;;;;;;0.70;0.60;;;12.90;95.40;;;;;;4960181;28;20054;-78
2024/03/22 11:17:53;;;;;;;1.30;0.95;;;12.80;99.90;;;;;;4988503;28;20516;-75
2024/03/22 11:20:19;;;;;;;0.95;0.77;;;12.70;99.90;;;;;;4970260;28;20050;-79
2024/03/22 11:22:45;;;;;;;0.95;0.65;;;12.70;99.90;;;;;;5004085;28;20060;-79
2024/03/22 11:25:11;;;;;;;1.25;1.08;;;12.60;99.90;;;;;;4953807;28;20053;-77
2024/03/22 11:27:37;;;;;;;0.77;0.73;;;12.50;99.90;;;;;;4986195;28;20049;-79
2024/03/22 11:30:03;;;;;;;1.15;0.88;;;12.50;99.90;;;;;;4969528;28;20145;-79
2024/03/22 11:32:30;;;;;;;1.00;0.85;;;12.40;99.90;;;;;;4969845;28;20050;-78
2024/03/22 11:34:56;;;;;;;2.17;1.33;;;12.30;99.90;;;;;;4968199;28;20077;-78
2024/03/22 11:37:22;;;;;;;1.10;1.00;;;12.20;99.90;;;;;;4985979;28;20176;-78
2024/03/22 11:39:49;;;;;;;1.20;0.90;;;12.20;99.90;;;;;;5001813;28;20061;-78
2024/03/22 11:42:15;;;;;;;1.77;0.95;;;12.20;99.90;;;;;;4986115;28;20058;-78
2024/03/22 11:44:42;;;;;;;2.05;1.27;;;12.10;99.90;;;;;;4949693;28;20065;-79
2024/03/22 11:47:08;;;;;;;1.42;0.90;;;12.20;99.90;;;;;;4966587;28;20457;-77
2024/03/22 11:49:34;;;;;;;2.38;1.30;;;12.20;99.90;;;;;;4963546;28;20058;-78
2024/03/22 11:52:00;;;;;;;1.23;0.75;;;12.30;99.90;;;;;;4949101;28;20054;-78
2024/03/22 11:54:26;;;;;;;1.27;0.60;;;12.40;99.90;;;;;;4958918;28;20065;-78
2024/03/22 11:56:56;;;;;;;1.05;0.50;;;12.40;99.90;;;;;;4961021;28;20550;-78
2024/03/22 11:59:22;;;;;;;1.50;0.70;;;12.20;99.90;;;;;;4966105;28;20112;-78
2024/03/22 12:01:48;;;;;;;1.45;0.68;;;12.20;99.90;;;;;;4967653;28;20049;-78
2024/03/22 12:04:17;;;;;;;1.25;0.63;;;12.10;99.90;;;;;;4959024;28;20054;-77
2024/03/22 12:06:46;;;;;;;2.00;0.75;;;12.10;99.90;;;;;;4949982;28;20050;-77
2024/03/22 12:09:13;;;;;;;2.50;0.88;;;12.00;99.90;;;;;;4951626;28;20046;-77
2024/03/22 12:11:39;;;;;;;1.30;0.80;;;11.80;99.90;;;;;;4950327;28;20058;-78
2024/03/22 12:14:06;;;;;;;2.13;0.85;;;11.70;99.90;;;;;;4949200;28;20057;-76
2024/03/22 12:16:32;;;;;;;1.00;0.60;;;11.60;99.90;;;;;;4988878;28;20050;-76
2024/03/22 12:18:58;;;;;;;1.55;0.80;;;11.70;99.90;;;;;;4952697;28;20052;-76
2024/03/22 12:21:24;;;;;;;2.25;1.00;;;11.60;99.90;;;;;;4967385;28;20057;-76
2024/03/22 12:23:50;;;;;;;3.25;1.17;;;11.50;99.90;;;;;;4975525;28;20050;-75
2024/03/22 12:26:17;;;;;;;2.60;1.00;;;11.40;99.90;;;;;;4949890;28;20054;-75
2024/03/22 12:28:42;;;;;;;2.53;1.00;;;11.20;99.90;;;;;;4949645;28;20057;-75
2024/03/22 12:31:10;;;;;;;2.15;0.63;;;11.10;99.90;;;;;;4949520;28;20050;-75
2024/03/22 12:33:36;;;;;;;1.13;0.57;;;11.10;1.00;;;;;;4965352;28;20302;-75
2024/03/22 12:36:03;;;;;;;2.75;1.02;;;11.20;91.60;;;;;;4980283;28;20062;-76
2024/03/22 12:38:30;;;;;;;2.38;0.60;;;11.00;34.20;;;;;;4949635;28;20122;-75
2024/03/22 12:40:56;;;;;;;1.98;1.02;;;11.10;99.90;;;;;;4949221;28;20560;-75
2024/03/22 12:43:22;;;;;;;1.38;0.73;;;11.00;99.90;;;;;;4949229;28;20069;-76